createdAt,value
2019-04-07T00:01:53.623Z,86.13
2019-04-07T00:04:22.507Z,81.67
2019-04-07T00:06:51.201Z,81.17
2019-04-07T00:09:20.421Z,83.83
2019-04-07T00:11:49.727Z,80.63
2019-04-07T00:14:18.281Z,83.50
2019-04-07T00:16:46.814Z,78.83
2019-04-07T00:19:15.659Z,77.83
2019-04-07T00:21:44.227Z,83.63
2019-04-07T00:24:12.698Z,87.87
2019-04-07T00:26:41.839Z,81.97
2019-04-07T00:29:10.940Z,83.33
2019-04-07T00:31:39.832Z,81.03
2019-04-07T00:34:08.487Z,84.70
2019-04-07T00:36:37.811Z,88.37
2019-04-07T00:39:08.247Z,83.97
2019-04-07T00:41:36.705Z,76.27
2019-04-07T00:44:05.277Z,81.37
2019-04-07T00:46:34.434Z,81.63
2019-04-07T00:49:03.059Z,79.80
2019-04-07T00:51:32.011Z,82.17
2019-04-07T00:54:00.888Z,78.43
2019-04-07T00:56:29.930Z,80.37
2019-04-07T00:58:58.850Z,78.70
2019-04-07T01:01:27.352Z,79.93
2019-04-07T01:03:55.903Z,83.33
2019-04-07T01:06:24.396Z,86.50
2019-04-07T01:08:53.650Z,81.77
2019-04-07T01:11:22.319Z,80.37
2019-04-07T01:14:10.311Z,81.73
2019-04-07T01:16:39.518Z,82.77
2019-04-07T01:19:07.981Z,79.90
2019-04-07T01:21:36.466Z,76.23
2019-04-07T01:24:05.615Z,79.43
2019-04-07T01:26:34.169Z,83.17
2019-04-07T01:29:03.085Z,75.73
2019-04-07T01:31:31.668Z,74.20
2019-04-07T01:34:00.139Z,77.67
2019-04-07T01:36:29.192Z,81.33
2019-04-07T01:38:57.757Z,76.40
2019-04-07T01:41:27.975Z,77.83
2019-04-07T01:44:03.630Z,75.93
2019-04-07T01:46:33.924Z,81.67
2019-04-07T01:49:10.978Z,78.27
2019-04-07T01:51:45.513Z,75.77
2019-04-07T01:54:34.294Z,77.93
2019-04-07T01:57:13.650Z,79.33
2019-04-07T01:59:52.864Z,83.70
2019-04-07T02:02:29.446Z,75.57
2019-04-07T02:05:00.126Z,79.33
2019-04-07T02:07:46.900Z,72.07
2019-04-07T02:10:27.354Z,77.93
2019-04-07T02:13:10.985Z,76.20
2019-04-07T02:15:47.350Z,79.43
2019-04-07T02:18:20.650Z,78.50
2019-04-07T02:21:09.743Z,74.33
2019-04-07T02:23:56.929Z,78.47
2019-04-07T02:26:47.148Z,77.00
2019-04-07T02:29:18.069Z,76.20
2019-04-07T02:32:06.027Z,75.13
2019-04-07T02:34:43.687Z,76.17
2019-04-07T02:37:17.559Z,82.63
2019-04-07T02:40:04.957Z,74.93
2019-04-07T02:42:41.040Z,75.30
2019-04-07T02:45:30.305Z,74.07
2019-04-07T02:48:01.142Z,80.53
2019-04-07T02:50:43.663Z,75.43
2019-04-07T02:53:30.800Z,75.20
2019-04-07T02:56:02.026Z,81.07
2019-04-07T02:58:49.764Z,73.43
2019-04-07T03:01:20.247Z,81.50
2019-04-07T03:04:07.366Z,80.97
2019-04-07T03:06:47.020Z,82.43
2019-04-07T03:09:28.216Z,75.20
2019-04-07T03:12:10.479Z,74.93
2019-04-07T03:14:58.855Z,74.97
2019-04-07T03:17:45.888Z,74.20
2019-04-07T03:20:18.875Z,74.63
2019-04-07T03:22:52.621Z,72.77
2019-04-07T03:25:32.480Z,72.67
2019-04-07T03:28:05.375Z,72.23
2019-04-07T03:30:42.012Z,68.10
2019-04-07T03:33:18.400Z,72.20
2019-04-07T03:35:50.923Z,71.87
2019-04-07T03:38:20.432Z,75.60
2019-04-07T03:40:59.678Z,77.00
2019-04-07T03:43:32.955Z,71.67
2019-04-07T03:46:03.682Z,74.83
2019-04-07T03:48:39.984Z,75.73
2019-04-07T03:51:13.308Z,77.97
2019-04-07T03:53:43.480Z,70.40
2019-04-07T03:56:17.112Z,67.20
2019-04-07T03:58:47.498Z,72.63
2019-04-07T04:01:20.865Z,71.83
2019-04-07T04:03:51.429Z,70.80
2019-04-07T04:06:30.673Z,76.03
2019-04-07T04:09:17.447Z,72.03
2019-04-07T04:11:51.557Z,68.03
2019-04-07T04:14:25.351Z,70.27
2019-04-07T04:16:54.325Z,70.60
2019-04-07T04:19:22.935Z,76.30
2019-04-07T04:21:52.449Z,70.47
2019-04-07T04:24:21.487Z,66.53
2019-04-07T04:26:50.106Z,69.57
2019-04-07T04:29:18.870Z,74.07
2019-04-07T04:31:47.505Z,71.80
2019-04-07T04:34:15.988Z,67.20
2019-04-07T04:36:44.792Z,69.47
2019-04-07T04:39:17.236Z,65.50
2019-04-07T04:41:44.603Z,64.53
2019-04-07T04:44:14.215Z,68.27
2019-04-07T04:46:43.427Z,64.57
2019-04-07T04:49:11.958Z,67.10
2019-04-07T04:51:40.990Z,65.27
2019-04-07T04:54:10.940Z,62.97
2019-04-07T04:56:39.695Z,66.27
2019-04-07T04:59:08.168Z,69.60
2019-04-07T05:01:36.658Z,72.40
2019-04-07T05:04:05.193Z,66.60
2019-04-07T05:06:33.656Z,67.40
2019-04-07T05:09:02.209Z,71.27
2019-04-07T05:11:30.685Z,66.83
2019-04-07T05:13:59.332Z,66.17
2019-04-07T05:16:29.326Z,67.87
2019-04-07T05:18:59.647Z,64.77
2019-04-07T05:21:28.240Z,68.63
2019-04-07T05:23:57.591Z,70.07
2019-04-07T05:26:26.487Z,66.83
2019-04-07T05:28:55.144Z,63.60
2019-04-07T05:31:23.625Z,71.33
2019-04-07T05:33:52.184Z,64.40
2019-04-07T05:36:21.387Z,64.10
2019-04-07T05:38:50.007Z,64.20
2019-04-07T05:41:18.495Z,68.83
2019-04-07T05:43:47.050Z,64.67
2019-04-07T05:46:16.008Z,64.77
2019-04-07T05:48:44.541Z,64.73
2019-04-07T05:51:13.394Z,66.17
2019-04-07T05:53:44.776Z,62.67
2019-04-07T05:56:12.247Z,69.57
2019-04-07T05:58:41.882Z,62.27
2019-04-07T06:01:10.924Z,62.50
2019-04-07T06:03:42.768Z,63.93
2019-04-07T06:06:10.441Z,65.33
2019-04-07T06:08:40.186Z,68.20
2019-04-07T06:11:09.229Z,59.57
2019-04-07T06:13:37.997Z,64.17
2019-04-07T06:16:07.336Z,63.93
2019-04-07T06:18:36.881Z,60.73
2019-04-07T06:21:06.088Z,63.90
2019-04-07T06:23:35.360Z,60.93
2019-04-07T06:26:09.263Z,62.60
2019-04-07T06:28:34.542Z,62.70
2019-04-07T06:31:03.236Z,62.60
2019-04-07T06:33:32.074Z,60.90
2019-04-07T06:36:00.671Z,57.87
2019-04-07T06:38:34.056Z,60.80
2019-04-07T06:41:01.789Z,63.37
2019-04-07T06:43:30.230Z,58.80
2019-04-07T06:46:00.411Z,57.00
2019-04-07T06:48:30.511Z,59.67
2019-04-07T06:51:01.674Z,58.83
2019-04-07T06:53:41.349Z,55.90
2019-04-07T06:56:32.155Z,56.50
2019-04-07T06:59:11.775Z,56.23
2019-04-07T07:01:49.308Z,62.70
2019-04-07T07:04:19.461Z,55.03
2019-04-07T07:06:50.125Z,62.83
2019-04-07T07:09:20.352Z,57.63
2019-04-07T07:11:56.269Z,60.87
2019-04-07T07:14:34.796Z,56.47
2019-04-07T07:17:21.481Z,55.33
2019-04-07T07:20:00.178Z,56.17
2019-04-07T07:22:29.969Z,57.97
2019-04-07T07:25:00.300Z,56.67
2019-04-07T07:27:29.166Z,54.57
2019-04-07T07:29:57.848Z,54.60
2019-04-07T07:32:26.879Z,55.13
2019-04-07T07:34:55.483Z,59.83
2019-04-07T07:37:25.275Z,53.20
2019-04-07T07:39:54.309Z,57.77
2019-04-07T07:42:24.223Z,52.30
2019-04-07T07:44:53.575Z,54.37
2019-04-07T07:47:22.924Z,52.97
2019-04-07T07:49:52.008Z,55.40
2019-04-07T07:52:21.866Z,53.07
2019-04-07T07:54:50.836Z,56.23
2019-04-07T07:57:23.478Z,53.60
2019-04-07T07:59:49.889Z,55.10
2019-04-07T08:02:19.974Z,49.13
2019-04-07T08:04:48.805Z,51.93
2019-04-07T08:07:17.308Z,52.70
2019-04-07T08:09:45.769Z,50.27
2019-04-07T08:12:15.159Z,51.17
2019-04-07T08:14:43.766Z,54.10
2019-04-07T08:17:12.312Z,51.30
2019-04-07T08:19:42.632Z,49.33
2019-04-07T08:22:11.654Z,50.97
2019-04-07T08:24:40.547Z,50.13
2019-04-07T08:27:09.160Z,49.20
2019-04-07T08:29:39.559Z,48.37
2019-04-07T08:32:08.614Z,51.47
2019-04-07T08:34:37.309Z,48.67
2019-04-07T08:37:05.976Z,47.97
2019-04-07T08:39:35.486Z,53.73
2019-04-07T08:42:09.819Z,45.80
2019-04-07T08:44:35.578Z,46.10
2019-04-07T08:47:04.134Z,48.57
2019-04-07T08:49:33.561Z,46.03
2019-04-07T08:52:07.300Z,47.97
2019-04-07T08:54:33.422Z,45.77
2019-04-07T08:57:01.925Z,47.30
2019-04-07T08:59:30.473Z,48.13
2019-04-07T09:01:59.973Z,44.07
2019-04-07T09:04:29.426Z,43.90
2019-04-07T09:07:00.703Z,42.93
2019-04-07T09:09:34.136Z,42.07
2019-04-07T09:11:59.286Z,42.90
2019-04-07T09:14:28.408Z,41.77
2019-04-07T09:17:13.691Z,43.17
2019-04-07T09:19:50.852Z,41.67
2019-04-07T09:22:38.223Z,43.30
2019-04-07T09:25:09.729Z,39.87
2019-04-07T09:27:53.998Z,41.00
2019-04-07T09:30:27.346Z,41.30
2019-04-07T09:33:16.705Z,39.83
2019-04-07T09:35:58.192Z,36.77
2019-04-07T09:41:12.209Z,35.97
2019-04-07T09:43:45.446Z,37.43
2019-04-07T09:46:21.052Z,32.70
2019-04-07T09:48:57.606Z,35.47
2019-04-07T09:51:27.825Z,34.57
2019-04-07T09:54:04.038Z,35.03
2019-04-07T09:56:43.979Z,35.90
2019-04-07T09:59:30.735Z,36.73
2019-04-07T10:02:10.378Z,37.03
2019-04-07T10:04:59.104Z,34.80
2019-04-07T10:07:29.527Z,31.87
2019-04-07T10:10:16.084Z,32.53
2019-04-07T10:12:46.212Z,30.37
2019-04-07T10:15:29.635Z,33.33
2019-04-07T10:20:49.203Z,31.20
2019-04-07T10:23:34.428Z,31.43
2019-04-07T10:26:16.804Z,30.20
2019-04-07T10:28:53.218Z,28.67
2019-04-07T10:31:23.613Z,27.77
2019-04-07T10:34:00.089Z,29.03
2019-04-07T10:36:45.257Z,27.13
2019-04-07T10:39:15.340Z,26.93
2019-04-07T10:42:01.490Z,26.17
2019-04-07T10:44:34.724Z,25.87
2019-04-07T10:47:07.734Z,25.40
2019-04-07T10:49:58.578Z,25.47
2019-04-07T10:52:39.273Z,23.10
2019-04-07T10:55:26.410Z,23.07
2019-04-07T10:57:59.810Z,20.17
2019-04-07T11:00:44.231Z,22.60
2019-04-07T11:03:11.023Z,22.03
2019-04-07T11:05:41.242Z,21.93
2019-04-07T11:08:23.456Z,22.70
2019-04-07T11:10:54.326Z,23.37
2019-04-07T11:13:24.508Z,21.97
2019-04-07T11:16:03.229Z,23.03
2019-04-07T11:18:49.410Z,24.43
2019-04-07T11:21:22.592Z,25.83
2019-04-07T11:24:11.216Z,21.73
2019-04-07T11:26:41.863Z,20.47
2019-04-07T11:29:16.602Z,24.00
2019-04-07T11:31:53.351Z,23.27
2019-04-07T11:34:27.103Z,22.43
2019-04-07T11:37:14.296Z,21.67
2019-04-07T11:39:47.944Z,19.63
2019-04-07T11:42:27.072Z,15.87
2019-04-07T11:45:13.800Z,14.43
2019-04-07T11:47:56.953Z,14.10
2019-04-07T11:50:34.279Z,14.43
2019-04-07T11:53:07.569Z,15.53
2019-04-07T11:55:37.825Z,15.03
2019-04-07T11:58:15.619Z,15.77
2019-04-07T12:00:42.539Z,17.73
2019-04-07T12:03:12.690Z,16.10
2019-04-07T12:05:47.002Z,16.40
2019-04-07T12:08:17.114Z,16.50
2019-04-07T12:11:03.396Z,16.70
2019-04-07T12:13:42.772Z,17.20
2019-04-07T12:16:18.457Z,17.00
2019-04-07T12:18:51.911Z,17.23
2019-04-07T12:21:35.333Z,17.07
2019-04-07T12:24:24.604Z,16.60
2019-04-07T12:26:56.588Z,16.80
2019-04-07T12:29:42.916Z,15.47
2019-04-07T12:32:13.657Z,14.97
2019-04-07T12:34:46.378Z,14.77
2019-04-07T12:37:30.746Z,17.57
2019-04-07T12:40:09.203Z,16.27
2019-04-07T12:42:42.932Z,16.47
2019-04-07T12:45:22.381Z,16.50
2019-04-07T12:47:59.457Z,15.47
2019-04-07T12:50:49.940Z,14.47
2019-04-07T12:53:25.140Z,15.70
2019-04-07T12:56:00.805Z,17.27
2019-04-07T12:58:45.049Z,15.70
2019-04-07T13:01:30.021Z,15.00
2019-04-07T13:04:03.595Z,15.50
2019-04-07T13:06:45.237Z,16.03
2019-04-07T13:09:27.848Z,16.67
2019-04-07T13:12:12.857Z,16.13
2019-04-07T13:14:52.391Z,16.90
2019-04-07T13:17:38.126Z,17.73
2019-04-07T13:20:09.213Z,15.33
2019-04-07T13:22:46.056Z,15.80
2019-04-07T13:25:23.155Z,16.17
2019-04-07T13:28:00.263Z,15.80
2019-04-07T13:30:36.572Z,15.40
2019-04-07T13:33:28.964Z,17.23
2019-04-07T13:36:01.867Z,17.13
2019-04-07T13:38:32.857Z,16.07
2019-04-07T13:41:07.249Z,14.40
2019-04-07T13:43:49.553Z,15.77
2019-04-07T13:46:30.885Z,15.20
2019-04-07T13:49:34.207Z,14.90
2019-04-07T13:52:05.402Z,14.87
2019-04-07T13:54:39.494Z,14.10
2019-04-07T13:57:14.446Z,15.50
2019-04-07T13:59:45.330Z,14.40
2019-04-07T14:02:30.532Z,15.03
2019-04-07T14:05:10.108Z,14.40
2019-04-07T14:07:51.805Z,13.33
2019-04-07T14:10:37.153Z,16.10
2019-04-07T14:13:07.463Z,14.10
2019-04-07T14:15:55.540Z,13.73
2019-04-07T14:18:34.588Z,13.30
2019-04-07T14:21:13.715Z,14.93
2019-04-07T14:23:44.671Z,14.00
2019-04-07T14:26:15.587Z,16.80
2019-04-07T14:28:45.918Z,15.27
2019-04-07T14:31:16.433Z,14.83
2019-04-07T14:34:05.495Z,14.63
2019-04-07T14:36:38.636Z,14.50
2019-04-07T14:39:10.683Z,14.77
2019-04-07T14:41:41.170Z,15.77
2019-04-07T14:44:15.119Z,15.80
2019-04-07T14:47:01.137Z,14.87
2019-04-07T14:49:37.911Z,14.73
2019-04-07T14:52:25.232Z,14.27
2019-04-07T14:55:07.588Z,16.03
2019-04-07T14:57:40.639Z,16.30
2019-04-07T15:00:20.307Z,16.23
2019-04-07T15:02:49.787Z,15.47
2019-04-07T15:05:25.213Z,15.67
2019-04-07T15:08:04.405Z,17.27
2019-04-07T15:10:37.338Z,15.43
2019-04-07T15:13:07.605Z,15.20
2019-04-07T15:15:36.829Z,14.77
2019-04-07T15:18:05.522Z,16.20
2019-04-07T15:20:34.419Z,15.13
2019-04-07T15:23:03.023Z,15.67
2019-04-07T15:25:31.486Z,15.50
2019-04-07T15:28:01.185Z,15.20
2019-04-07T15:30:31.004Z,15.97
2019-04-07T15:33:01.615Z,15.50
2019-04-07T15:35:29.834Z,15.63
2019-04-07T15:37:59.095Z,15.80
2019-04-07T15:40:28.180Z,15.57
2019-04-07T15:42:56.955Z,15.70
2019-04-07T15:45:26.562Z,16.53
2019-04-07T15:47:55.269Z,16.20
2019-04-07T15:50:24.439Z,15.67
2019-04-07T15:52:54.073Z,15.53
2019-04-07T15:55:26.324Z,16.87
2019-04-07T15:57:55.573Z,16.13
2019-04-07T16:00:23.728Z,15.93
2019-04-07T16:02:53.549Z,18.40
2019-04-07T16:05:22.727Z,16.83
2019-04-07T16:07:53.647Z,15.30
2019-04-07T16:10:23.588Z,15.30
2019-04-07T16:12:53.603Z,15.33
2019-04-07T16:15:23.085Z,15.87
2019-04-07T16:17:52.328Z,15.40
2019-04-07T16:20:25.052Z,15.53
2019-04-07T16:22:52.654Z,15.07
2019-04-07T16:25:25.408Z,18.57
2019-04-07T16:27:51.492Z,16.33
2019-04-07T16:30:20.463Z,17.87
2019-04-07T16:32:49.056Z,15.17
2019-04-07T16:35:18.275Z,15.73
2019-04-07T16:37:46.828Z,14.67
2019-04-07T16:40:15.564Z,17.97
2019-04-07T16:42:53.847Z,16.77
2019-04-07T16:45:16.961Z,15.53
2019-04-07T16:47:45.461Z,15.60
2019-04-07T16:50:18.106Z,15.47
2019-04-07T16:52:45.031Z,15.67
2019-04-07T16:55:37.218Z,16.23
2019-04-07T16:58:06.634Z,15.57
2019-04-07T17:00:35.605Z,15.63
2019-04-07T17:03:06.042Z,15.47
2019-04-07T17:05:36.195Z,15.50
2019-04-07T17:08:05.486Z,15.67
2019-04-07T17:10:35.401Z,16.73
2019-04-07T17:13:14.595Z,17.30
2019-04-07T17:15:37.449Z,16.23
2019-04-07T17:18:08.910Z,16.93
2019-04-07T17:20:38.288Z,16.93
2019-04-07T17:23:07.230Z,16.67
2019-04-07T17:25:35.989Z,17.03
2019-04-07T17:28:06.178Z,16.87
2019-04-07T17:30:35.420Z,19.97
2019-04-07T17:33:06.445Z,23.40
2019-04-07T17:35:35.764Z,21.37
2019-04-07T17:38:07.061Z,19.10
2019-04-07T17:40:37.669Z,19.97
2019-04-07T17:43:13.928Z,20.47
2019-04-07T17:45:52.118Z,21.93
2019-04-07T17:48:41.173Z,20.63
2019-04-07T17:51:09.754Z,20.67
2019-04-07T17:53:58.280Z,19.43
2019-04-07T17:56:46.376Z,19.37
2019-04-07T17:59:22.098Z,19.00
2019-04-07T18:02:08.811Z,18.47
2019-04-07T18:04:50.124Z,19.73
2019-04-07T18:07:28.808Z,17.07
2019-04-07T18:10:04.868Z,18.73
2019-04-07T18:12:45.377Z,17.97
2019-04-07T18:15:19.159Z,17.87
2019-04-07T18:18:08.077Z,18.63
2019-04-07T18:20:44.449Z,20.90
2019-04-07T18:23:32.655Z,21.87
2019-04-07T18:26:21.748Z,20.07
2019-04-07T18:29:04.376Z,19.53
2019-04-07T18:31:37.874Z,18.33
2019-04-07T18:34:25.732Z,18.27
2019-04-07T18:37:10.013Z,18.53
2019-04-07T18:39:54.204Z,19.23
2019-04-07T18:45:23.127Z,19.67
2019-04-07T18:47:58.079Z,19.17
2019-04-07T18:50:31.001Z,18.57
2019-04-07T18:53:17.833Z,18.50
2019-04-07T18:55:48.394Z,20.97
2019-04-07T18:58:18.636Z,19.63
2019-04-07T19:00:48.751Z,19.10
2019-04-07T19:03:21.367Z,20.13
2019-04-07T19:05:54.246Z,20.63
2019-04-07T19:08:30.615Z,19.77
2019-04-07T19:11:12.286Z,20.97
2019-04-07T19:13:59.466Z,20.57
2019-04-07T19:16:23.438Z,21.73
2019-04-07T19:19:08.306Z,20.97
2019-04-07T19:21:48.196Z,20.27
2019-04-07T19:24:19.361Z,21.77
2019-04-07T19:26:52.238Z,22.13
2019-04-07T19:29:21.665Z,22.30
2019-04-07T19:32:02.118Z,23.87
2019-04-07T19:34:48.174Z,22.53
2019-04-07T19:37:20.174Z,23.83
2019-04-07T19:40:06.022Z,23.03
2019-04-07T19:42:39.082Z,21.93
2019-04-07T19:45:25.926Z,22.47
2019-04-07T19:48:13.453Z,21.60
2019-04-07T19:51:01.122Z,22.70
2019-04-07T19:53:37.317Z,22.20
2019-04-07T19:56:10.371Z,23.40
2019-04-07T19:58:53.288Z,24.20
2019-04-07T20:01:29.522Z,23.50
2019-04-07T20:04:10.227Z,22.87
2019-04-07T20:06:56.205Z,24.20
2019-04-07T20:09:27.848Z,24.47
2019-04-07T20:12:10.689Z,24.03
2019-04-07T20:15:04.187Z,22.97
2019-04-07T20:20:33.622Z,22.27
2019-04-07T20:23:22.874Z,23.60
2019-04-07T20:26:01.725Z,24.27
2019-04-07T20:28:44.976Z,23.20
2019-04-07T20:31:19.414Z,25.70
2019-04-07T20:34:05.505Z,23.87
2019-04-07T20:36:43.160Z,24.13
2019-04-07T20:39:33.833Z,23.13
2019-04-07T20:42:01.684Z,23.13
2019-04-07T20:44:35.650Z,26.07
2019-04-07T20:47:09.528Z,25.30
2019-04-07T20:49:47.777Z,23.17
2019-04-07T20:52:17.903Z,23.37
2019-04-07T20:55:05.702Z,27.80
2019-04-07T20:57:48.160Z,22.67
2019-04-07T21:00:37.178Z,25.20
2019-04-07T21:03:26.795Z,26.03
2019-04-07T21:06:06.408Z,24.90
2019-04-07T21:08:53.966Z,24.93
2019-04-07T21:11:27.909Z,25.47
2019-04-07T21:14:15.517Z,25.17
2019-04-07T21:17:01.591Z,28.63
2019-04-07T21:19:35.475Z,25.47
2019-04-07T21:22:08.672Z,26.47
2019-04-07T21:24:45.553Z,25.17
2019-04-07T21:27:34.764Z,24.50
2019-04-07T21:30:12.517Z,27.07
2019-04-07T21:32:57.804Z,22.73
2019-04-07T21:35:34.742Z,25.13
2019-04-07T21:38:02.568Z,30.07
2019-04-07T21:40:50.114Z,30.30
2019-04-07T21:43:36.073Z,31.23
2019-04-07T21:46:13.021Z,28.50
2019-04-07T21:48:44.226Z,29.13
2019-04-07T21:51:16.690Z,29.83
2019-04-07T21:54:02.721Z,25.37
2019-04-07T21:56:48.387Z,25.60
2019-04-07T21:59:29.280Z,28.43
2019-04-07T22:02:11.401Z,24.67
2019-04-07T22:04:42.156Z,24.93
2019-04-07T22:07:21.583Z,25.37
2019-04-07T22:09:52.199Z,28.27
2019-04-07T22:12:20.688Z,27.33
2019-04-07T22:14:49.170Z,24.47
2019-04-07T22:17:17.708Z,24.93
2019-04-07T22:19:46.963Z,26.33
2019-04-07T22:22:16.485Z,25.30
2019-04-07T22:24:44.994Z,24.63
2019-04-07T22:27:13.917Z,24.17
2019-04-07T22:29:42.806Z,25.83
2019-04-07T22:32:11.693Z,24.67
2019-04-07T22:34:40.196Z,24.50
2019-04-07T22:37:08.661Z,25.97
2019-04-07T22:39:37.571Z,25.47
2019-04-07T22:42:06.374Z,23.87
2019-04-07T22:44:35.566Z,25.33
2019-04-07T22:47:05.001Z,25.50
2019-04-07T22:49:33.646Z,25.17
2019-04-07T22:52:02.173Z,24.93
2019-04-07T22:54:31.263Z,24.20
2019-04-07T22:57:00.685Z,25.30
2019-04-07T22:59:30.181Z,26.17
2019-04-07T23:01:58.931Z,28.70
2019-04-07T23:04:28.393Z,23.97
2019-04-07T23:06:56.868Z,24.37
2019-04-07T23:09:25.449Z,25.63
2019-04-07T23:11:54.505Z,25.07
2019-04-07T23:14:23.346Z,25.53
2019-04-07T23:16:52.134Z,23.97
2019-04-07T23:19:20.595Z,23.83
2019-04-07T23:21:49.153Z,24.07
2019-04-07T23:24:17.665Z,26.13
2019-04-07T23:26:46.738Z,23.63
2019-04-07T23:29:15.332Z,22.63
2019-04-07T23:31:44.103Z,23.60
2019-04-07T23:34:13.234Z,23.57
2019-04-07T23:36:42.420Z,25.67
2019-04-07T23:39:11.132Z,24.63
2019-04-07T23:41:39.681Z,24.27
2019-04-07T23:44:08.169Z,24.23
2019-04-07T23:46:36.647Z,23.53
2019-04-07T23:49:05.771Z,25.27
2019-04-07T23:51:35.138Z,24.20
2019-04-07T23:54:09.141Z,24.07
2019-04-07T23:56:39.418Z,23.87
2019-04-07T23:59:08.566Z,26.63
